Time;durP1;ratioP1;P1;durP2;ratioP2;P2;SDS_P1;SDS_P2;PMS_P1;PMS_P2;Temp;Humidity;BMP_temperature;BMP_pressure;BME280_temperature;BME280_humidity;BME280_pressure;Samples;Min_cycle;Max_cycle;Signal;HPM_P1;HPM_P2
2023/07/25 00:01:37;;;;;;;3.45;1.33;;;22.40;1.00;;;;;;4825022;29;20058;-48
2023/07/25 00:04:03;;;;;;;1.88;0.52;;;22.40;1.00;;;;;;4826268;29;20078;-50
2023/07/25 00:06:30;;;;;;;2.60;0.70;;;22.40;1.00;;;;;;4826264;29;20042;-47
2023/07/25 00:08:57;;;;;;;4.70;0.82;;;22.40;1.00;;;;;;4826281;29;20046;-49
2023/07/25 00:11:24;;;;;;;3.35;1.77;;;22.40;1.00;;;;;;4826488;29;20492;-51
2023/07/25 00:13:51;;;;;;;3.42;0.65;;;22.40;1.00;;;;;;4826686;29;20038;-47
2023/07/25 00:16:18;;;;;;;3.80;0.82;;;22.40;1.00;;;;;;4825490;29;20052;-49
2023/07/25 00:18:45;;;;;;;3.28;0.75;;;22.40;1.00;;;;;;4826478;29;20046;-48
2023/07/25 00:21:11;;;;;;;2.13;0.75;;;22.40;1.00;;;;;;4825887;29;20066;-50
2023/07/25 00:23:38;;;;;;;5.30;0.60;;;22.30;1.00;;;;;;4826841;29;20057;-49
2023/07/25 00:26:05;;;;;;;4.50;1.45;;;22.30;1.00;;;;;;4825564;29;20081;-51
2023/07/25 00:28:32;;;;;;;3.42;0.85;;;22.30;1.00;;;;;;4825793;29;20489;-46
2023/07/25 00:31:06;;;;;;;2.28;0.70;;;22.30;1.00;;;;;;4824987;29;20054;-46
2023/07/25 00:33:33;;;;;;;2.53;1.17;;;22.30;1.00;;;;;;4840217;29;20049;-50
2023/07/25 00:36:00;;;;;;;2.85;0.77;;;22.30;1.00;;;;;;4829730;29;20064;-50
2023/07/25 00:38:27;;;;;;;4.55;1.02;;;22.30;1.00;;;;;;4825186;29;20074;-46
2023/07/25 00:40:54;;;;;;;2.30;0.55;;;22.30;1.00;;;;;;4825673;29;20458;-48
2023/07/25 00:43:21;;;;;;;2.38;1.15;;;22.30;1.00;;;;;;4826506;29;20050;-49
2023/07/25 00:45:48;;;;;;;3.78;1.00;;;22.30;1.00;;;;;;4846279;29;20500;-50
2023/07/25 00:48:15;;;;;;;2.33;1.00;;;22.30;1.00;;;;;;4824313;29;20058;-49
2023/07/25 00:50:42;;;;;;;3.03;0.63;;;22.30;1.00;;;;;;4825908;29;20507;-48
2023/07/25 00:53:09;;;;;;;2.53;1.20;;;22.30;1.00;;;;;;4824879;29;20074;-49
2023/07/25 00:55:37;;;;;;;3.03;0.75;;;22.30;1.00;;;;;;4838451;29;20102;-50
2023/07/25 00:58:04;;;;;;;2.70;0.88;;;22.30;1.00;;;;;;4835708;29;20054;-49
2023/07/25 01:00:31;;;;;;;3.42;0.60;;;22.30;1.00;;;;;;4839362;29;20042;-46
2023/07/25 01:02:58;;;;;;;4.00;1.25;;;22.30;1.00;;;;;;4824100;29;20134;-51
2023/07/25 01:05:28;;;;;;;2.67;0.73;;;22.30;1.00;;;;;;4825210;29;20046;-49
2023/07/25 01:07:55;;;;;;;1.70;0.77;;;22.20;1.00;;;;;;4823871;29;20078;-50
2023/07/25 01:10:22;;;;;;;4.35;1.23;;;22.20;1.00;;;;;;4825618;29;20062;-50
2023/07/25 01:12:49;;;;;;;5.80;0.70;;;22.20;1.00;;;;;;4837008;29;20467;-46
2023/07/25 01:15:16;;;;;;;2.30;0.98;;;22.20;1.00;;;;;;4835029;29;20394;-49
2023/07/25 01:17:43;;;;;;;2.22;0.55;;;22.20;1.00;;;;;;4823716;29;20103;-48
2023/07/25 01:20:10;;;;;;;2.38;0.75;;;22.20;1.00;;;;;;4824900;29;20046;-49
2023/07/25 01:22:38;;;;;;;4.13;1.02;;;22.20;1.00;;;;;;4823660;29;20054;-51
2023/07/25 01:25:08;;;;;;;3.28;1.17;;;22.20;1.00;;;;;;4834505;29;20073;-51
2023/07/25 01:27:35;;;;;;;2.03;0.80;;;22.20;1.00;;;;;;4823899;29;20050;-50
2023/07/25 01:30:02;;;;;;;3.60;0.82;;;22.20;1.00;;;;;;4824180;29;20050;-51
2023/07/25 01:32:30;;;;;;;3.45;0.63;;;22.20;1.00;;;;;;4842211;29;20045;-50
2023/07/25 01:34:57;;;;;;;3.65;0.88;;;22.20;1.00;;;;;;4840642;29;20112;-51
2023/07/25 01:37:24;;;;;;;3.72;0.65;;;22.20;1.00;;;;;;4823213;29;20521;-51
2023/07/25 01:39:51;;;;;;;1.38;0.68;;;22.20;1.00;;;;;;4825041;29;20042;-51
2023/07/25 01:42:18;;;;;;;5.90;2.28;;;22.20;1.00;;;;;;4824440;29;20141;-51
2023/07/25 01:44:45;;;;;;;2.75;0.75;;;22.20;1.00;;;;;;4837716;29;20106;-48
2023/07/25 01:47:11;;;;;;;3.20;0.88;;;22.20;1.00;;;;;;4824812;29;20401;-49
2023/07/25 01:49:38;;;;;;;4.35;1.27;;;22.10;1.00;;;;;;4823558;29;20573;-49
2023/07/25 01:52:05;;;;;;;2.25;0.50;;;22.10;1.00;;;;;;4841998;29;20509;-48
2023/07/25 01:54:32;;;;;;;3.53;0.65;;;22.20;1.00;;;;;;4841321;29;20485;-50
2023/07/25 01:56:59;;;;;;;5.57;1.38;;;22.10;1.00;;;;;;4832574;29;20046;-51
2023/07/25 01:59:27;;;;;;;1.65;0.60;;;22.10;1.00;;;;;;4830265;29;20042;-49
2023/07/25 02:01:54;;;;;;;2.92;1.13;;;22.10;1.00;;;;;;4823211;29;20070;-49
2023/07/25 02:04:21;;;;;;;2.25;0.50;;;22.10;1.00;;;;;;4824333;29;20038;-49
2023/07/25 02:06:48;;;;;;;2.03;0.85;;;22.10;1.00;;;;;;4833386;29;20038;-50
2023/07/25 02:09:14;;;;;;;4.55;0.55;;;22.10;1.00;;;;;;4827411;29;20050;-47
2023/07/25 02:11:41;;;;;;;2.10;1.10;;;22.10;1.00;;;;;;4824865;29;20042;-46
2023/07/25 02:14:08;;;;;;;2.72;0.90;;;22.10;1.00;;;;;;4823126;29;20095;-48
2023/07/25 02:16:36;;;;;;;2.40;0.77;;;22.10;1.00;;;;;;4821531;29;20046;-46
2023/07/25 02:19:03;;;;;;;2.05;0.30;;;22.10;1.00;;;;;;4822519;29;20081;-49
2023/07/25 02:21:31;;;;;;;1.88;0.40;;;22.10;1.00;;;;;;4824223;29;20107;-49
2023/07/25 02:23:59;;;;;;;1.95;0.95;;;22.10;1.00;;;;;;4831224;29;20067;-48
2023/07/25 02:26:25;;;;;;;2.58;0.65;;;22.10;1.00;;;;;;4822488;29;20054;-46
2023/07/25 02:28:52;;;;;;;1.85;0.70;;;22.10;1.00;;;;;;4824293;29;20038;-47
2023/07/25 02:31:19;;;;;;;2.13;0.80;;;22.10;1.00;;;;;;4823573;29;20478;-49
2023/07/25 02:33:46;;;;;;;3.97;1.10;;;22.10;1.00;;;;;;4842625;29;20122;-47
2023/07/25 02:36:13;;;;;;;5.28;0.95;;;22.10;1.00;;;;;;4823804;29;20039;-47
2023/07/25 02:38:40;;;;;;;6.25;1.05;;;22.00;1.00;;;;;;4829785;29;20050;-49
2023/07/25 02:41:08;;;;;;;2.35;0.65;;;22.00;1.00;;;;;;4823767;29;20035;-46
2023/07/25 02:43:35;;;;;;;4.45;1.02;;;22.00;1.00;;;;;;4825986;29;20050;-48
2023/07/25 02:46:02;;;;;;;1.35;0.47;;;22.00;1.00;;;;;;4827800;29;20416;-47
2023/07/25 02:48:29;;;;;;;3.47;0.77;;;22.00;1.00;;;;;;4829798;29;20054;-46
2023/07/25 02:50:55;;;;;;;2.70;0.68;;;22.00;1.00;;;;;;4822703;29;20046;-46
2023/07/25 02:53:22;;;;;;;4.32;0.40;;;22.00;1.00;;;;;;4838351;29;20129;-47
2023/07/25 02:55:49;;;;;;;1.30;0.40;;;22.00;1.00;;;;;;4832793;29;20128;-46
2023/07/25 02:58:16;;;;;;;2.83;0.73;;;22.00;1.00;;;;;;4837937;29;20052;-49
2023/07/25 03:00:43;;;;;;;2.83;0.75;;;22.00;1.00;;;;;;4823208;29;20038;-46
2023/07/25 03:03:10;;;;;;;5.97;0.68;;;22.00;1.00;;;;;;4823463;29;20050;-48
2023/07/25 03:05:37;;;;;;;3.88;0.68;;;22.00;1.00;;;;;;4821694;29;20050;-49
2023/07/25 03:08:05;;;;;;;1.45;0.47;;;22.00;1.00;;;;;;4823527;29;20121;-47
2023/07/25 03:10:32;;;;;;;1.63;0.45;;;22.00;1.00;;;;;;4822318;29;20543;-46
2023/07/25 03:12:59;;;;;;;2.70;0.68;;;22.00;1.00;;;;;;4823755;29;20121;-47
2023/07/25 03:15:26;;;;;;;3.95;0.63;;;22.00;1.00;;;;;;4831919;29;20110;-46
2023/07/25 03:17:54;;;;;;;2.10;0.63;;;21.90;1.00;;;;;;4824854;29;20046;-59
2023/07/25 03:20:21;;;;;;;1.05;0.50;;;22.00;1.00;;;;;;4821776;29;20082;-57
2023/07/25 03:22:48;;;;;;;2.85;0.73;;;22.00;1.00;;;;;;4825553;29;20054;-59
2023/07/25 03:25:15;;;;;;;3.58;0.70;;;21.90;1.00;;;;;;4831301;29;20050;-59
2023/07/25 03:27:41;;;;;;;3.42;0.60;;;21.90;1.00;;;;;;4823069;29;20397;-59
2023/07/25 03:30:09;;;;;;;2.72;1.42;;;21.90;1.00;;;;;;4823578;29;20445;-59
2023/07/25 03:32:35;;;;;;;2.05;0.43;;;21.90;1.00;;;;;;4830409;29;20053;-58
2023/07/25 03:35:03;;;;;;;4.28;0.57;;;21.90;1.00;;;;;;4821328;29;20046;-59
2023/07/25 03:37:30;;;;;;;2.00;0.65;;;21.90;1.00;;;;;;4821445;29;20107;-59
2023/07/25 03:39:57;;;;;;;3.15;0.50;;;21.90;1.00;;;;;;4823059;29;20121;-59
2023/07/25 03:42:24;;;;;;;2.10;0.60;;;21.90;1.00;;;;;;4822886;29;20043;-58
2023/07/25 03:44:51;;;;;;;1.65;0.65;;;21.90;1.00;;;;;;4828507;29;20095;-59
2023/07/25 03:51:03;;;;;;;2.22;0.70;;;21.90;1.00;;;;;;4786095;29;20475;-59
2023/07/25 03:53:30;;;;;;;2.90;1.48;;;21.90;1.00;;;;;;4801093;29;20066;-58
2023/07/25 03:55:57;;;;;;;1.58;0.50;;;21.90;1.00;;;;;;4785774;29;20081;-58
2023/07/25 03:58:24;;;;;;;1.85;0.47;;;21.90;1.00;;;;;;4761770;30;20059;-57
2023/07/25 04:00:50;;;;;;;1.25;0.70;;;21.80;1.00;;;;;;4800078;29;20040;-58
2023/07/25 04:03:17;;;;;;;1.02;0.40;;;21.90;1.00;;;;;;4767035;30;20055;-60
2023/07/25 04:05:44;;;;;;;3.55;0.93;;;21.80;1.00;;;;;;4780642;30;20480;-59
2023/07/25 04:08:11;;;;;;;5.07;0.90;;;21.90;1.00;;;;;;4772074;30;20044;-60
2023/07/25 04:10:38;;;;;;;2.35;0.50;;;21.90;1.00;;;;;;4776870;29;20054;-60
2023/07/25 04:13:05;;;;;;;3.22;0.93;;;21.80;1.00;;;;;;4781433;30;20594;-60
2023/07/25 04:15:32;;;;;;;7.95;0.68;;;21.70;1.00;;;;;;4770343;30;20737;-60
2023/07/25 04:17:59;;;;;;;1.75;0.45;;;21.70;1.00;;;;;;4770353;30;20051;-59
2023/07/25 04:20:26;;;;;;;10.10;1.90;;;21.70;1.00;;;;;;4798580;29;20059;-59
2023/07/25 04:22:52;;;;;;;3.35;0.55;;;21.70;1.00;;;;;;4776332;30;20074;-60
2023/07/25 04:25:19;;;;;;;6.25;0.50;;;21.70;1.00;;;;;;4799714;29;20054;-61
2023/07/25 04:27:46;;;;;;;5.78;0.63;;;21.60;1.00;;;;;;4798888;29;20051;-60
2023/07/25 04:30:13;;;;;;;5.80;1.60;;;21.70;1.00;;;;;;4800001;29;20089;-60
2023/07/25 04:32:40;;;;;;;4.88;0.55;;;21.60;1.00;;;;;;4769984;30;20047;-60
2023/07/25 04:35:07;;;;;;;4.55;0.70;;;21.60;1.00;;;;;;4786210;30;20055;-60
2023/07/25 04:37:34;;;;;;;2.45;0.32;;;21.60;1.00;;;;;;4799858;29;20061;-60
2023/07/25 04:40:01;;;;;;;2.15;0.40;;;21.60;1.00;;;;;;4801802;29;20053;-60
2023/07/25 04:42:28;;;;;;;6.18;0.82;;;21.60;1.00;;;;;;4773382;30;20057;-60
2023/07/25 04:44:54;;;;;;;3.35;0.40;;;21.60;1.00;;;;;;4803217;29;20104;-60
2023/07/25 04:47:24;;;;;;;4.78;0.75;;;21.60;1.00;;;;;;4789495;30;20490;-60
2023/07/25 04:49:51;;;;;;;5.65;0.40;;;21.60;1.00;;;;;;4789347;30;20051;-60
2023/07/25 04:52:18;;;;;;;1.83;0.30;;;21.60;1.00;;;;;;4803446;24;20501;-60
2023/07/25 04:54:45;;;;;;;2.78;0.50;;;21.60;1.00;;;;;;4823432;29;20130;-60
2023/07/25 04:57:12;;;;;;;5.18;0.77;;;21.60;1.00;;;;;;4828349;29;20043;-60
2023/07/25 04:59:39;;;;;;;3.05;0.68;;;21.60;1.00;;;;;;4822084;29;20126;-60
2023/07/25 05:02:06;;;;;;;4.03;0.68;;;21.60;1.00;;;;;;4823779;29;20053;-60
2023/07/25 05:04:33;;;;;;;1.48;0.47;;;21.60;1.00;;;;;;4825155;29;20050;-60
2023/07/25 05:06:59;;;;;;;7.72;0.52;;;21.60;1.00;;;;;;4824944;29;20127;-60
2023/07/25 05:09:26;;;;;;;3.10;1.00;;;21.60;1.00;;;;;;4839282;29;20497;-60
2023/07/25 05:11:53;;;;;;;3.47;0.80;;;21.50;1.00;;;;;;4825339;29;20046;-60
2023/07/25 05:14:20;;;;;;;1.60;0.40;;;21.50;1.00;;;;;;4825175;29;20445;-58
2023/07/25 05:16:47;;;;;;;4.40;0.45;;;21.50;1.00;;;;;;4825007;29;20042;-59
2023/07/25 05:19:14;;;;;;;0.68;0.30;;;21.50;1.00;;;;;;4824793;29;20046;-58
2023/07/25 05:21:40;;;;;;;2.78;0.35;;;21.50;1.00;;;;;;4816047;29;20039;-59
2023/07/25 05:24:07;;;;;;;5.55;0.50;;;21.50;1.00;;;;;;4814085;29;20447;-60
2023/07/25 05:26:34;;;;;;;2.92;0.77;;;21.60;1.00;;;;;;4822437;29;20074;-60
2023/07/25 05:29:01;;;;;;;3.20;1.35;;;21.60;1.00;;;;;;4824741;29;20053;-60
2023/07/25 05:31:28;;;;;;;6.80;0.60;;;21.50;1.00;;;;;;4838882;29;20053;-60
2023/07/25 05:33:55;;;;;;;2.60;0.50;;;21.50;1.00;;;;;;4824598;29;20493;-59
2023/07/25 05:36:22;;;;;;;3.38;0.45;;;21.50;1.00;;;;;;4824899;29;20103;-59
2023/07/25 05:38:49;;;;;;;4.47;0.30;;;21.50;1.00;;;;;;4824480;29;20095;-59
2023/07/25 05:41:16;;;;;;;2.95;0.50;;;21.50;1.00;;;;;;4824719;29;20047;-60
2023/07/25 05:43:42;;;;;;;2.70;0.35;;;21.50;1.00;;;;;;4824681;29;20074;-60
2023/07/25 05:46:09;;;;;;;6.05;0.63;;;21.50;1.00;;;;;;4824436;29;20111;-60
2023/07/25 05:48:36;;;;;;;4.22;0.45;;;21.50;1.00;;;;;;4824322;29;20046;-60
2023/07/25 05:51:03;;;;;;;1.15;0.38;;;21.50;1.00;;;;;;4823600;29;20050;-60
2023/07/25 05:53:30;;;;;;;1.65;0.30;;;21.50;1.00;;;;;;4824423;29;20050;-60
2023/07/25 05:55:57;;;;;;;3.53;0.77;;;21.50;1.00;;;;;;4821014;29;20103;-58
2023/07/25 05:58:24;;;;;;;0.70;0.20;;;21.50;1.00;;;;;;4824370;29;20052;-60
2023/07/25 06:00:51;;;;;;;4.88;0.60;;;21.50;1.00;;;;;;4824658;29;20053;-60
2023/07/25 06:03:18;;;;;;;2.53;0.47;;;21.50;1.00;;;;;;4824564;29;20446;-58
2023/07/25 06:05:45;;;;;;;1.65;0.40;;;21.50;1.00;;;;;;4824273;29;20462;-56
2023/07/25 06:08:12;;;;;;;1.45;0.40;;;21.50;1.00;;;;;;4824182;29;20047;-60
2023/07/25 06:10:39;;;;;;;2.17;0.40;;;21.50;1.00;;;;;;4823992;29;20054;-60
2023/07/25 06:13:06;;;;;;;2.42;0.22;;;21.50;1.00;;;;;;4824080;29;20074;-60
2023/07/25 06:15:34;;;;;;;0.82;0.63;;;21.50;1.00;;;;;;4838114;29;20049;-60
2023/07/25 06:18:04;;;;;;;0.40;0.20;;;21.50;1.00;;;;;;4823997;29;20057;-60
2023/07/25 06:20:32;;;;;;;2.05;0.50;;;21.50;1.00;;;;;;4824116;29;20054;-60
2023/07/25 06:23:01;;;;;;;3.22;0.50;;;21.50;1.00;;;;;;4824081;29;20046;-60
2023/07/25 06:25:28;;;;;;;4.13;0.32;;;21.60;1.00;;;;;;4815618;29;20066;-60
2023/07/25 06:27:55;;;;;;;2.90;0.77;;;21.50;1.00;;;;;;4823057;29;20505;-60
2023/07/25 06:30:22;;;;;;;2.75;0.20;;;21.60;1.00;;;;;;4823763;29;20042;-58
2023/07/25 06:32:49;;;;;;;2.75;0.28;;;21.60;1.00;;;;;;4823828;29;20133;-57
2023/07/25 06:35:20;;;;;;;3.35;0.40;;;21.50;1.00;;;;;;4823671;29;20043;-58
2023/07/25 06:37:48;;;;;;;2.70;0.85;;;21.60;1.00;;;;;;4823622;29;20042;-60
2023/07/25 06:40:15;;;;;;;2.60;0.40;;;21.60;1.00;;;;;;4824037;29;20054;-59
2023/07/25 06:42:42;;;;;;;2.72;0.70;;;21.60;1.00;;;;;;4823873;29;20185;-59
2023/07/25 06:45:11;;;;;;;4.85;0.75;;;21.60;1.00;;;;;;4822215;29;20417;-59
2023/07/25 06:47:38;;;;;;;3.35;0.40;;;21.60;1.00;;;;;;4837035;29;20141;-58
2023/07/25 06:50:06;;;;;;;1.95;1.05;;;21.60;1.00;;;;;;4823181;29;20050;-59
2023/07/25 06:52:32;;;;;;;2.38;0.30;;;21.60;1.00;;;;;;4823588;29;20047;-58
2023/07/25 06:58:25;;;;;;;1.25;0.40;;;21.60;1.00;;;;;;4799159;29;20094;-57
2023/07/25 07:00:52;;;;;;;1.02;0.43;;;21.60;1.00;;;;;;4804900;29;20067;-58
2023/07/25 07:03:19;;;;;;;2.15;0.30;;;21.70;1.00;;;;;;4804701;29;20055;-58
2023/07/25 07:05:55;;;;;;;0.57;0.20;;;21.60;1.00;;;;;;4804932;29;20055;-59
2023/07/25 07:08:23;;;;;;;4.22;0.55;;;21.60;1.00;;;;;;4805043;29;20410;-59
2023/07/25 07:10:54;;;;;;;1.13;0.20;;;21.70;1.00;;;;;;4805049;29;20060;-58
2023/07/25 07:13:21;;;;;;;3.03;0.32;;;21.60;1.00;;;;;;4792398;29;20510;-59
2023/07/25 07:15:49;;;;;;;1.95;0.43;;;21.60;1.00;;;;;;4802914;29;20107;-60
2023/07/25 07:18:16;;;;;;;1.58;0.63;;;21.60;1.00;;;;;;4804828;29;20099;-60
2023/07/25 07:20:48;;;;;;;1.85;0.38;;;21.60;1.00;;;;;;4804859;29;20079;-60
2023/07/25 07:23:15;;;;;;;0.47;0.20;;;21.70;1.00;;;;;;4804554;29;20070;-60
2023/07/25 07:25:43;;;;;;;1.42;0.32;;;21.70;1.00;;;;;;4797365;29;20142;-60
2023/07/25 07:28:33;;;;;;;2.78;0.50;;;21.70;1.00;;;;;;4805204;29;20122;-82
2023/07/25 07:30:59;;;;;;;4.13;0.35;;;21.70;1.00;;;;;;4830356;29;20074;-59
2023/07/25 07:33:26;;;;;;;1.23;0.40;;;21.70;1.00;;;;;;4841031;29;20450;-59
2023/07/25 07:35:53;;;;;;;2.40;0.63;;;21.70;1.00;;;;;;4841065;29;20129;-59
2023/07/25 07:38:20;;;;;;;1.00;0.20;;;21.70;1.00;;;;;;4840888;29;20098;-59
2023/07/25 07:40:47;;;;;;;0.82;0.30;;;21.70;1.00;;;;;;4832795;29;20198;-59
2023/07/25 07:43:15;;;;;;;0.95;0.20;;;21.70;1.00;;;;;;4834420;29;20378;-59
2023/07/25 07:45:42;;;;;;;1.85;0.32;;;21.70;1.00;;;;;;4840936;29;20505;-58
2023/07/25 07:48:09;;;;;;;1.50;0.20;;;21.70;1.00;;;;;;4840832;29;20057;-59
2023/07/25 07:50:35;;;;;;;1.45;1.05;;;21.70;1.00;;;;;;4841107;29;20410;-59
2023/07/25 07:53:03;;;;;;;1.13;0.20;;;21.70;1.00;;;;;;4841075;29;20754;-59
2023/07/25 07:55:30;;;;;;;2.20;0.50;;;21.70;1.00;;;;;;4840907;29;20483;-60
2023/07/25 07:57:57;;;;;;;1.35;0.32;;;21.70;1.00;;;;;;4840878;29;20048;-59
2023/07/25 08:00:23;;;;;;;1.02;0.40;;;21.70;1.00;;;;;;4841165;29;20046;-58
2023/07/25 08:03:16;;;;;;;3.58;0.38;;;21.80;1.00;;;;;;4834498;29;20049;-59
2023/07/25 08:05:43;;;;;;;1.02;0.45;;;21.80;1.00;;;;;;4840873;29;20107;-59
2023/07/25 08:08:09;;;;;;;2.95;0.43;;;21.80;1.00;;;;;;4840870;29;20049;-57
2023/07/25 08:10:37;;;;;;;1.15;0.47;;;21.80;1.00;;;;;;4841244;29;20050;-58
2023/07/25 08:13:03;;;;;;;0.93;0.35;;;21.80;1.00;;;;;;4840787;29;20058;-59
2023/07/25 08:15:30;;;;;;;1.67;0.35;;;21.80;1.00;;;;;;4843589;29;20124;-60
2023/07/25 08:17:57;;;;;;;2.65;0.38;;;21.80;1.00;;;;;;4845443;29;20042;-59
2023/07/25 08:20:24;;;;;;;0.65;0.20;;;21.80;1.00;;;;;;4844330;29;20053;-59
2023/07/25 08:22:51;;;;;;;1.55;0.38;;;21.80;1.00;;;;;;4828034;29;20548;-59
2023/07/25 08:25:17;;;;;;;1.73;0.55;;;21.80;1.00;;;;;;4844312;29;20073;-59
2023/07/25 08:27:45;;;;;;;1.23;0.98;;;21.80;1.00;;;;;;4843779;29;20046;-59
2023/07/25 08:30:12;;;;;;;0.73;0.30;;;21.80;1.00;;;;;;4844250;29;20050;-60
2023/07/25 08:32:38;;;;;;;2.00;0.68;;;21.80;1.00;;;;;;4844470;29;20042;-60
2023/07/25 08:35:06;;;;;;;2.17;0.30;;;21.80;1.00;;;;;;4843822;29;20042;-60
2023/07/25 08:37:33;;;;;;;1.20;0.45;;;21.80;1.00;;;;;;4844029;29;20527;-60
2023/07/25 08:39:59;;;;;;;3.70;0.45;;;21.80;1.00;;;;;;4844800;29;20404;-60
2023/07/25 08:42:31;;;;;;;3.10;0.57;;;21.80;1.00;;;;;;4845555;29;20098;-59
2023/07/25 08:45:00;;;;;;;6.60;0.82;;;21.80;1.00;;;;;;4846617;29;20505;-60
2023/07/25 08:47:27;;;;;;;1.35;0.50;;;21.70;1.00;;;;;;4844250;29;20120;-60
2023/07/25 08:49:56;;;;;;;2.40;0.65;;;21.70;1.00;;;;;;4843791;29;20056;-60
2023/07/25 08:52:28;;;;;;;0.98;0.22;;;21.70;1.00;;;;;;4843922;29;20098;-60
2023/07/25 08:54:55;;;;;;;0.77;0.22;;;21.70;1.00;;;;;;4843649;29;20045;-59
2023/07/25 08:57:26;;;;;;;2.05;0.30;;;21.70;1.00;;;;;;4843771;29;20110;-59
2023/07/25 08:59:53;;;;;;;0.82;0.17;;;21.70;1.00;;;;;;4843943;29;20073;-59
2023/07/25 09:02:21;;;;;;;3.85;0.93;;;21.70;1.00;;;;;;4841808;29;20053;-58
2023/07/25 09:04:49;;;;;;;1.35;0.20;;;21.70;1.00;;;;;;4840603;29;20057;-59
2023/07/25 09:07:16;;;;;;;0.90;0.30;;;21.70;1.00;;;;;;4843476;29;20056;-59
2023/07/25 09:09:43;;;;;;;0.38;0.20;;;21.70;1.00;;;;;;4843792;29;20116;-59
2023/07/25 09:12:10;;;;;;;0.63;0.20;;;21.70;1.00;;;;;;4843429;29;20061;-59
2023/07/25 09:14:39;;;;;;;1.10;0.17;;;21.70;1.00;;;;;;4843440;29;20408;-59
2023/07/25 09:17:06;;;;;;;7.07;0.40;;;21.70;1.00;;;;;;4843202;29;20046;-59
2023/07/25 09:19:33;;;;;;;0.90;0.25;;;21.70;1.00;;;;;;4843402;29;20042;-56
2023/07/25 09:22:01;;;;;;;1.00;0.40;;;21.70;1.00;;;;;;4843596;29;20102;-59
2023/07/25 09:24:38;;;;;;;2.90;0.73;;;21.70;1.00;;;;;;4843445;29;20607;-58
2023/07/25 09:27:16;;;;;;;1.60;0.63;;;21.70;1.00;;;;;;4843301;29;20122;-59
2023/07/25 09:29:43;;;;;;;4.45;0.50;;;21.70;1.00;;;;;;4843593;29;20425;-59
2023/07/25 09:36:00;;;;;;;1.15;0.40;;;21.70;1.00;;;;;;4824887;29;20046;-60
2023/07/25 09:38:27;;;;;;;1.33;0.75;;;21.70;1.00;;;;;;4820218;29;20070;-59
2023/07/25 09:40:55;;;;;;;1.15;0.20;;;21.70;1.00;;;;;;4814430;29;20393;-58
2023/07/25 09:43:26;;;;;;;1.15;0.20;;;21.70;1.00;;;;;;4824999;29;20038;-59
2023/07/25 09:45:54;;;;;;;0.43;0.10;;;21.70;1.00;;;;;;4824953;29;20050;-58
2023/07/25 09:48:22;;;;;;;0.60;0.20;;;21.70;1.00;;;;;;4794363;29;20060;-60
2023/07/25 09:50:50;;;;;;;3.00;0.40;;;21.70;1.00;;;;;;4824677;29;20062;-60
2023/07/25 09:53:17;;;;;;;1.10;0.20;;;21.70;1.00;;;;;;4824706;29;20042;-60
2023/07/25 09:55:45;;;;;;;0.35;0.10;;;21.70;1.00;;;;;;4824752;29;20066;-60
2023/07/25 09:58:12;;;;;;;1.10;0.20;;;21.70;1.00;;;;;;4824707;29;20081;-58
2023/07/25 10:00:43;;;;;;;1.58;0.20;;;21.70;1.00;;;;;;4824984;29;20485;-58
2023/07/25 10:03:10;;;;;;;2.67;0.25;;;21.70;1.00;;;;;;4824950;29;20508;-60
2023/07/25 10:05:52;;;;;;;1.95;0.30;;;21.70;1.00;;;;;;4825056;29;20042;-82
2023/07/25 10:08:21;;;;;;;0.85;0.10;;;21.70;1.00;;;;;;4802501;29;20051;-58
2023/07/25 10:10:48;;;;;;;0.80;0.13;;;21.70;1.00;;;;;;4791834;29;20047;-59
2023/07/25 10:13:15;;;;;;;1.40;0.57;;;21.70;1.00;;;;;;4788164;30;20795;-60
2023/07/25 10:15:42;;;;;;;0.93;0.22;;;21.70;1.00;;;;;;4787823;30;20063;-60
2023/07/25 10:18:23;;;;;;;1.25;0.68;;;21.70;1.00;;;;;;4787533;30;20039;-59
2023/07/25 10:20:52;;;;;;;2.30;0.30;;;21.70;1.00;;;;;;4788069;30;20069;-60
2023/07/25 10:23:19;;;;;;;0.55;0.30;;;21.70;1.00;;;;;;4787839;30;20050;-59
2023/07/25 10:25:46;;;;;;;3.40;0.30;;;21.70;1.00;;;;;;4787885;30;20487;-60
2023/07/25 10:28:13;;;;;;;0.50;0.20;;;21.70;1.00;;;;;;4773280;29;20116;-59
2023/07/25 10:30:45;;;;;;;1.20;0.10;;;21.70;1.00;;;;;;4805648;29;20443;-60
2023/07/25 10:33:13;;;;;;;0.80;0.30;;;21.70;1.00;;;;;;4805513;29;20075;-60
2023/07/25 10:35:55;;;;;;;1.13;0.30;;;21.70;1.00;;;;;;4805462;29;20478;-58
2023/07/25 10:38:36;;;;;;;1.30;0.25;;;21.70;1.00;;;;;;4801745;29;20792;-64
2023/07/25 10:41:08;;;;;;;1.92;0.20;;;21.70;1.00;;;;;;4785048;30;20112;-59
2023/07/25 10:43:55;;;;;;;1.17;0.50;;;21.70;1.00;;;;;;4787985;30;20380;-59
2023/07/25 10:46:27;;;;;;;0.32;0.10;;;21.70;1.00;;;;;;4787380;30;20123;-59
2023/07/25 10:49:01;;;;;;;1.95;0.40;;;21.70;1.00;;;;;;4787271;30;20358;-58
2023/07/25 10:51:51;;;;;;;2.90;0.32;;;21.70;1.00;;;;;;4787513;30;20043;-59
2023/07/25 10:54:20;;;;;;;1.33;0.43;;;21.70;1.00;;;;;;4787081;30;20054;-59
2023/07/25 10:57:09;;;;;;;2.08;0.20;;;21.70;1.00;;;;;;4787737;30;20051;-59
2023/07/25 11:00:04;;;;;;;2.60;0.22;;;21.70;1.00;;;;;;4787598;30;20043;-59
2023/07/25 11:02:43;;;;;;;0.77;0.43;;;21.70;1.00;;;;;;4787555;30;20466;-59
2023/07/25 11:05:13;;;;;;;0.98;0.28;;;21.70;1.00;;;;;;4787533;30;20048;-59
2023/07/25 11:07:40;;;;;;;1.17;0.30;;;21.70;1.00;;;;;;4786745;30;20129;-59
2023/07/25 11:10:07;;;;;;;1.90;0.20;;;21.70;1.00;;;;;;4787069;30;20058;-58
2023/07/25 11:12:35;;;;;;;0.95;0.20;;;21.70;1.00;;;;;;4785498;29;20130;-59
2023/07/25 11:15:02;;;;;;;3.42;0.40;;;21.70;1.00;;;;;;4770728;30;20325;-60
2023/07/25 11:17:29;;;;;;;0.57;0.20;;;21.70;1.00;;;;;;4786739;30;20043;-59
2023/07/25 11:20:12;;;;;;;0.63;0.38;;;21.70;1.00;;;;;;4771211;30;20096;-60
2023/07/25 11:22:40;;;;;;;;;;;21.70;1.00;;;;;;4787438;30;20043;-60
2023/07/25 11:25:07;;;;;;;1.55;0.47;;;21.70;1.00;;;;;;4786459;30;19931;-59
2023/07/25 11:27:45;;;;;;;1.15;0.25;;;21.70;1.00;;;;;;4786347;30;20104;-59
2023/07/25 11:30:16;;;;;;;0.90;0.15;;;21.70;1.00;;;;;;4787065;30;20055;-59
2023/07/25 11:32:52;;;;;;;0.30;0.10;;;21.70;1.00;;;;;;4787208;30;20047;-60
2023/07/25 11:35:19;;;;;;;1.08;0.30;;;21.70;1.00;;;;;;4786956;30;20071;-60
2023/07/25 11:37:49;;;;;;;2.58;0.30;;;21.70;1.00;;;;;;4786668;30;20110;-59
2023/07/25 11:40:21;;;;;;;1.17;0.40;;;21.70;1.00;;;;;;4786539;30;20134;-60
2023/07/25 11:42:49;;;;;;;0.50;0.20;;;21.80;1.00;;;;;;4777847;29;20405;-60
2023/07/25 11:45:17;;;;;;;1.15;0.43;;;21.70;1.00;;;;;;4804708;29;20094;-59
2023/07/25 11:47:49;;;;;;;0.70;0.40;;;21.70;1.00;;;;;;4804634;29;20046;-60
2023/07/25 11:50:18;;;;;;;0.60;0.20;;;21.70;1.00;;;;;;4806943;29;20062;-60
2023/07/25 11:52:56;;;;;;;3.58;0.30;;;21.70;1.00;;;;;;4790567;30;20043;-60
2023/07/25 11:55:26;;;;;;;1.00;0.20;;;21.70;1.00;;;;;;4790296;30;20043;-60
2023/07/25 11:57:53;;;;;;;1.27;0.17;;;21.80;1.00;;;;;;4790188;30;20062;-59
2023/07/25 12:00:22;;;;;;;1.50;0.35;;;21.70;1.00;;;;;;4790256;30;20137;-60
2023/07/25 12:02:48;;;;;;;3.03;0.45;;;21.70;1.00;;;;;;4790479;30;20126;-59
2023/07/25 12:05:29;;;;;;;0.77;0.40;;;21.80;1.00;;;;;;4790161;30;20108;-60
2023/07/25 12:08:00;;;;;;;2.78;0.40;;;21.70;1.00;;;;;;4789877;30;20047;-60
2023/07/25 12:10:32;;;;;;;3.00;0.60;;;21.70;1.00;;;;;;4790572;30;20047;-60
2023/07/25 12:13:02;;;;;;;1.25;0.20;;;21.70;1.00;;;;;;4790152;29;20067;-60
2023/07/25 12:15:46;;;;;;;0.57;0.28;;;21.70;1.00;;;;;;4790064;30;20066;-58
2023/07/25 12:18:36;;;;;;;1.98;0.47;;;21.70;1.00;;;;;;4789800;30;20054;-60
2023/07/25 12:21:04;;;;;;;1.15;0.40;;;21.70;1.00;;;;;;4790162;30;20054;-62
2023/07/25 12:23:38;;;;;;;2.40;0.43;;;21.70;1.00;;;;;;4790091;30;20049;-59
2023/07/25 12:26:09;;;;;;;0.80;0.60;;;21.70;1.00;;;;;;4789958;30;20057;-60
2023/07/25 12:28:39;;;;;;;1.07;0.30;;;21.70;1.00;;;;;;4789732;30;20047;-60
2023/07/25 12:31:06;;;;;;;0.73;0.35;;;21.70;1.00;;;;;;4792003;30;20090;-59
2023/07/25 12:33:33;;;;;;;2.63;0.52;;;21.70;1.00;;;;;;4795597;29;20081;-60
2023/07/25 12:36:00;;;;;;;3.33;0.47;;;21.80;1.00;;;;;;4808304;29;20546;-60
2023/07/25 12:38:27;;;;;;;2.35;0.40;;;21.70;1.00;;;;;;4807376;29;20458;-59
2023/07/25 12:40:54;;;;;;;3.83;0.40;;;21.80;1.00;;;;;;4807618;29;20049;-60
2023/07/25 12:43:28;;;;;;;2.78;0.43;;;21.70;1.00;;;;;;4808578;29;20465;-82
2023/07/25 12:45:55;;;;;;;1.30;0.20;;;21.70;1.00;;;;;;4810581;29;20553;-60
2023/07/25 12:48:22;;;;;;;2.83;1.17;;;21.80;1.00;;;;;;4824992;29;20133;-60
2023/07/25 12:50:50;;;;;;;2.45;0.50;;;21.80;1.00;;;;;;4825614;29;20489;-59
2023/07/25 12:53:17;;;;;;;1.15;0.40;;;21.80;1.00;;;;;;4825462;29;20057;-59
2023/07/25 12:55:44;;;;;;;0.68;0.38;;;21.80;1.00;;;;;;4813783;29;20043;-59
2023/07/25 12:58:11;;;;;;;1.38;0.30;;;21.80;1.00;;;;;;4822304;29;20562;-60
2023/07/25 13:00:38;;;;;;;4.20;0.50;;;21.80;1.00;;;;;;4823945;29;20039;-60
2023/07/25 13:03:05;;;;;;;0.90;0.28;;;21.80;1.00;;;;;;4825503;29;20051;-60
2023/07/25 13:05:32;;;;;;;1.13;0.68;;;21.80;1.00;;;;;;4825323;29;20241;-60
2023/07/25 13:07:58;;;;;;;2.28;0.50;;;21.80;1.00;;;;;;4825390;29;20053;-58
2023/07/25 13:10:25;;;;;;;1.33;0.50;;;21.80;1.00;;;;;;4825170;29;20133;-60
2023/07/25 13:12:53;;;;;;;0.52;0.10;;;21.80;1.00;;;;;;4825492;29;20057;-60
2023/07/25 13:18:31;;;;;;;2.97;0.70;;;21.80;1.00;;;;;;4831938;29;20129;-60